Time;durP1;ratioP1;P1;durP2;ratioP2;P2;SDS_P1;SDS_P2;PMS_P1;PMS_P2;Temp;Humidity;BMP_temperature;BMP_pressure;BME280_temperature;BME280_humidity;BME280_pressure;Samples;Min_cycle;Max_cycle;Signal;HPM_P1;HPM_P2
2021/04/29 00:01:27;;;;;;;11.40;6.83;;;;;;;1.72;74.72;99630.23;1727927;83;21124;-65
2021/04/29 00:03:55;;;;;;;12.60;6.67;;;;;;;1.70;75.09;99631.03;1729444;82;21220;-65
2021/04/29 00:06:23;;;;;;;14.00;7.05;;;;;;;1.67;75.74;99630.19;1753915;81;21086;-65
2021/04/29 00:08:52;;;;;;;13.72;7.08;;;;;;;1.65;75.68;99630.44;1755470;81;21490;-65
2021/04/29 00:11:19;;;;;;;13.05;6.72;;;;;;;1.62;75.55;99631.48;1727957;81;21556;-65
2021/04/29 00:13:48;;;;;;;13.05;7.05;;;;;;;1.59;75.95;99627.94;1755362;81;21077;-66
2021/04/29 00:16:15;;;;;;;14.25;6.62;;;;;;;1.54;76.46;99630.05;1755319;81;21389;-66
2021/04/29 00:18:43;;;;;;;14.15;7.00;;;;;;;1.50;76.59;99624.05;1755346;80;20995;-66
2021/04/29 00:21:11;;;;;;;14.83;7.25;;;;;;;1.43;76.93;99624.78;1747953;81;21510;-66
2021/04/29 00:23:39;;;;;;;13.80;7.47;;;;;;;1.38;77.16;99622.02;1698964;84;21146;-65
2021/04/29 00:26:06;;;;;;;11.48;6.95;;;;;;;1.33;77.41;99625.48;1756977;81;21040;-66
2021/04/29 00:28:34;;;;;;;14.23;6.95;;;;;;;1.29;77.50;99630.58;1728427;82;22483;-65
2021/04/29 00:31:01;;;;;;;11.90;6.92;;;;;;;1.28;77.61;99628.13;1728351;83;20957;-66
2021/04/29 00:33:30;;;;;;;12.68;7.22;;;;;;;1.26;78.05;99624.33;1697773;83;21108;-65
2021/04/29 00:36:01;;;;;;;13.08;7.72;;;;;;;1.23;78.14;99628.89;1728365;83;21986;-66
2021/04/29 00:38:28;;;;;;;12.70;7.45;;;;;;;1.19;78.12;99631.81;1697766;84;21180;-65
2021/04/29 00:40:56;;;;;;;12.70;7.45;;;;;;;1.15;78.28;99628.01;1728407;83;21512;-65
2021/04/29 00:43:24;;;;;;;17.85;7.37;;;;;;;1.13;78.21;99629.33;1719888;83;21506;-65
2021/04/29 00:45:51;;;;;;;12.90;7.30;;;;;;;1.11;78.30;99634.17;1735376;81;21075;-64
2021/04/29 00:48:20;;;;;;;12.68;7.15;;;;;;;1.08;78.53;99634.14;1764777;81;21566;-64
2021/04/29 00:50:50;;;;;;;13.15;7.92;;;;;;;1.07;78.61;99632.50;1764770;81;21133;-64
2021/04/29 00:53:17;;;;;;;13.28;7.12;;;;;;;1.04;78.51;99630.84;1764774;81;21264;-64
2021/04/29 00:55:46;;;;;;;13.38;6.78;;;;;;;1.02;78.45;99630.27;1764747;81;21186;-64
2021/04/29 00:58:14;;;;;;;14.25;7.35;;;;;;;1.02;78.62;99632.97;1764731;81;20917;-65
2021/04/29 01:00:41;;;;;;;18.87;7.37;;;;;;;1.00;79.08;99634.58;1764781;81;20948;-64
2021/04/29 01:03:16;;;;;;;15.78;8.53;;;;;;;0.98;79.44;99624.55;1756363;81;21086;-65
2021/04/29 01:05:50;;;;;;;12.58;7.25;;;;;;;0.96;79.47;99626.15;1764808;80;22264;-66
2021/04/29 01:08:47;;;;;;;11.43;7.00;;;;;;;0.94;79.34;99622.06;1739271;81;21145;-66
2021/04/29 01:11:20;;;;;;;15.48;7.90;;;;;;;0.91;79.12;99621.21;1719593;83;21498;-66
2021/04/29 01:13:54;;;;;;;15.15;6.50;;;;;;;0.87;79.02;99621.42;1728344;83;20989;-66
2021/04/29 01:16:22;;;;;;;;;;;;;;;0.86;79.47;99622.50;1730409;83;21054;-66
2021/04/29 01:18:53;;;;;;;12.07;7.75;;;;;;;0.85;79.63;99623.56;1728258;83;20762;-65
2021/04/29 01:21:22;;;;;;;17.73;7.85;;;;;;;0.84;79.94;99628.69;1764821;81;21059;-65
2021/04/29 01:24:06;;;;;;;17.60;8.15;;;;;;;0.84;79.99;99621.92;1728416;83;20993;-66
2021/04/29 01:26:55;;;;;;;10.85;7.08;;;;;;;0.83;79.97;99619.76;1728389;83;20934;-65
2021/04/29 01:29:30;;;;;;;14.53;7.87;;;;;;;0.83;79.92;99618.94;1719938;83;20940;-66
2021/04/29 01:31:58;;;;;;;15.55;7.78;;;;;;;0.82;79.98;99612.72;1764803;80;21413;-67
2021/04/29 01:34:31;;;;;;;11.90;8.15;;;;;;;0.81;79.98;99611.08;1728290;83;21100;-67
2021/04/29 01:36:59;;;;;;;16.30;8.40;;;;;;;0.80;79.84;99609.45;1728377;82;21005;-67
2021/04/29 01:39:27;;;;;;;15.28;8.05;;;;;;;0.80;79.99;99605.92;1719847;83;21030;-67
2021/04/29 01:41:55;;;;;;;13.98;8.08;;;;;;;0.81;80.17;99607.56;1764778;80;21476;-67
2021/04/29 01:44:24;;;;;;;13.00;8.13;;;;;;;0.81;80.20;99610.27;1699289;82;22692;-67
2021/04/29 01:46:56;;;;;;;18.12;8.48;;;;;;;0.81;80.27;99612.44;1734348;82;20952;-67
2021/04/29 01:49:23;;;;;;;14.80;8.75;;;;;;;0.84;80.43;99610.58;1726415;81;20949;-67
2021/04/29 01:51:52;;;;;;;13.43;8.55;;;;;;;0.85;80.48;99612.22;1705813;82;20960;-67
2021/04/29 01:54:21;;;;;;;16.87;8.43;;;;;;;0.85;80.47;99611.41;1734615;82;21542;-67
2021/04/29 01:56:49;;;;;;;14.45;8.08;;;;;;;0.83;80.53;99609.48;1683447;82;21299;-67
2021/04/29 01:59:17;;;;;;;16.82;9.00;;;;;;;0.82;80.75;99609.20;1734493;82;21012;-67
2021/04/29 02:01:46;;;;;;;19.05;9.55;;;;;;;0.81;81.02;99612.44;1734513;82;20909;-67
2021/04/29 02:04:14;;;;;;;16.17;8.88;;;;;;;0.82;81.11;99615.95;1733574;81;21066;-67
2021/04/29 02:06:44;;;;;;;17.65;9.05;;;;;;;0.81;81.36;99612.97;1726455;83;20923;-69
2021/04/29 02:09:13;;;;;;;15.63;8.80;;;;;;;0.84;81.70;99621.92;1726475;83;21195;-68
2021/04/29 02:11:48;;;;;;;18.50;9.40;;;;;;;0.88;81.76;99619.01;1726394;83;21107;-68
2021/04/29 02:14:20;;;;;;;16.40;8.75;;;;;;;0.93;81.92;99619.89;1726331;83;21505;-68
2021/04/29 02:16:47;;;;;;;17.77;8.95;;;;;;;0.98;81.91;99623.20;1728130;81;21004;-68
2021/04/29 02:19:15;;;;;;;16.95;8.83;;;;;;;1.05;81.99;99617.60;1704129;83;21071;-69
2021/04/29 02:21:43;;;;;;;21.62;9.55;;;;;;;1.12;82.23;99612.83;1689116;85;21401;-68
2021/04/29 02:24:11;;;;;;;13.85;9.25;;;;;;;1.23;82.52;99611.84;1688990;85;20960;-69
2021/04/29 02:26:39;;;;;;;17.42;8.13;;;;;;;1.32;82.65;99616.55;1689151;85;20976;-68
2021/04/29 02:29:07;;;;;;;17.37;9.50;;;;;;;1.39;82.73;99612.30;1689129;85;21126;-65
2021/04/29 02:31:36;;;;;;;16.95;10.08;;;;;;;1.44;82.54;99612.89;1689260;83;21504;-65
2021/04/29 02:34:04;;;;;;;16.65;9.95;;;;;;;1.49;82.55;99612.41;1689262;85;22252;-66
2021/04/29 02:36:33;;;;;;;21.17;10.05;;;;;;;1.54;82.45;99611.11;1689096;85;21040;-66
2021/04/29 02:39:01;;;;;;;17.57;10.32;;;;;;;1.64;82.16;99607.69;1689235;85;21471;-66
2021/04/29 02:41:29;;;;;;;14.47;10.35;;;;;;;1.71;81.69;99604.25;1689204;83;21139;-66
2021/04/29 02:44:00;;;;;;;16.97;10.05;;;;;;;1.80;81.44;99613.50;1689174;83;21134;-66
2021/04/29 02:46:28;;;;;;;19.27;10.78;;;;;;;1.88;81.17;99607.63;1685634;85;21227;-66
2021/04/29 02:48:56;;;;;;;16.12;9.63;;;;;;;1.98;80.79;99610.42;1681156;85;21070;-67
2021/04/29 02:51:24;;;;;;;17.95;10.45;;;;;;;2.08;80.62;99607.52;1681224;85;21073;-66
2021/04/29 02:53:52;;;;;;;17.92;10.05;;;;;;;2.17;80.29;99606.79;1681115;85;21081;-66
2021/04/29 02:56:19;;;;;;;19.40;11.15;;;;;;;2.26;79.94;99608.48;1681185;85;21090;-66
2021/04/29 02:58:49;;;;;;;15.03;9.50;;;;;;;2.33;79.60;99604.44;1681203;85;21573;-65
2021/04/29 03:01:18;;;;;;;14.98;10.20;;;;;;;2.42;79.32;99607.48;1681164;85;21022;-67
2021/04/29 03:03:46;;;;;;;18.62;9.55;;;;;;;2.50;78.98;99607.53;1681167;85;21188;-68
2021/04/29 03:06:14;;;;;;;17.75;10.63;;;;;;;2.56;79.09;99599.17;1692785;84;21621;-66
2021/04/29 03:08:41;;;;;;;16.32;9.93;;;;;;;2.62;78.64;99600.02;1711282;81;21119;-66
2021/04/29 03:11:09;;;;;;;17.25;10.43;;;;;;;2.68;78.25;99601.69;1720931;82;21212;-65
2021/04/29 03:13:37;;;;;;;14.45;9.80;;;;;;;2.74;78.02;99603.89;1706986;83;21621;-65
2021/04/29 03:16:05;;;;;;;17.65;9.98;;;;;;;2.79;77.73;99603.38;1707188;84;21506;-66
2021/04/29 03:18:33;;;;;;;18.85;10.25;;;;;;;2.82;77.58;99606.92;1720725;82;21114;-68
2021/04/29 03:21:01;;;;;;;17.05;10.82;;;;;;;2.87;77.49;99608.84;1736481;82;21177;-66
2021/04/29 03:23:29;;;;;;;15.88;9.85;;;;;;;2.89;77.29;99607.47;1736473;82;21453;-67
2021/04/29 03:25:57;;;;;;;15.45;8.83;;;;;;;2.92;77.09;99611.55;1736569;82;21163;-67
2021/04/29 03:28:26;;;;;;;14.90;9.70;;;;;;;2.94;76.93;99610.20;1736399;82;20924;-67
2021/04/29 03:30:53;;;;;;;14.93;8.93;;;;;;;2.97;76.83;99621.88;1730066;82;20955;-67
2021/04/29 03:33:22;;;;;;;14.80;9.58;;;;;;;3.00;76.82;99616.47;1736605;82;20940;-66
2021/04/29 03:35:56;;;;;;;15.15;9.40;;;;;;;3.07;77.17;99618.40;1737081;82;21201;-62
2021/04/29 03:38:24;;;;;;;;;;;;;;;3.13;77.25;99611.92;1739494;82;21090;-62
2021/04/29 03:40:51;;;;;;;15.15;8.55;;;;;;;3.20;77.00;99617.91;1711753;83;20135;-63
2021/04/29 03:43:19;;;;;;;14.68;9.03;;;;;;;3.25;76.81;99622.00;1686011;83;21154;-63
2021/04/29 03:45:47;;;;;;;20.65;9.78;;;;;;;3.30;76.55;99627.45;1677297;85;21210;-62
2021/04/29 03:48:15;;;;;;;13.90;8.58;;;;;;;3.36;76.52;99620.69;1682540;85;21396;-62
2021/04/29 03:50:43;;;;;;;13.78;8.30;;;;;;;3.43;76.39;99624.78;1677329;85;21099;-63
2021/04/29 03:53:11;;;;;;;13.78;9.20;;;;;;;3.51;76.44;99630.20;1682862;85;21084;-63
2021/04/29 03:55:39;;;;;;;18.73;10.38;;;;;;;3.55;76.04;99622.61;1677318;85;21224;-62
2021/04/29 03:58:07;;;;;;;14.78;8.88;;;;;;;3.61;76.19;99629.69;1682846;85;21173;-63
2021/04/29 04:00:34;;;;;;;16.07;9.58;;;;;;;3.68;76.04;99629.43;1676171;85;22283;-64
2021/04/29 04:03:02;;;;;;;19.75;9.00;;;;;;;3.75;75.99;99632.70;1728430;82;21602;-61
2021/04/29 04:05:31;;;;;;;12.78;8.45;;;;;;;3.83;75.79;99629.46;1739888;82;21177;-62
2021/04/29 04:07:58;;;;;;;15.25;9.80;;;;;;;3.90;75.67;99627.84;1746798;82;21170;-62
2021/04/29 04:10:26;;;;;;;16.17;9.45;;;;;;;3.96;75.52;99630.30;1746631;82;21688;-63
2021/04/29 04:12:54;;;;;;;15.98;9.83;;;;;;;4.02;75.28;99630.30;1721803;82;21367;-61
2021/04/29 04:15:22;;;;;;;14.73;9.15;;;;;;;4.08;75.33;99627.83;1716898;83;21158;-62
2021/04/29 04:17:50;;;;;;;12.95;8.75;;;;;;;4.13;75.15;99629.19;1694592;83;21039;-61
2021/04/29 04:20:20;;;;;;;15.83;10.32;;;;;;;4.20;75.16;99631.09;1716961;83;21165;-61
2021/04/29 04:22:48;;;;;;;15.45;8.55;;;;;;;4.26;75.06;99627.30;1717365;83;21545;-60
2021/04/29 04:25:17;;;;;;;13.95;8.68;;;;;;;4.32;74.96;99630.28;1717367;83;21377;-60
2021/04/29 04:27:44;;;;;;;15.13;10.13;;;;;;;4.39;75.04;99630.01;1717215;83;20968;-61
2021/04/29 04:30:14;;;;;;;16.73;9.88;;;;;;;4.46;75.42;99629.19;1717216;83;21093;-63
2021/04/29 04:32:42;;;;;;;14.15;8.70;;;;;;;4.55;75.55;99628.36;1717297;83;20972;-60
2021/04/29 04:35:12;;;;;;;12.95;8.75;;;;;;;4.62;75.65;99616.62;1717296;83;21118;-61
2021/04/29 04:37:40;;;;;;;19.35;9.33;;;;;;;4.76;75.34;99625.03;1717306;83;21378;-61
2021/04/29 04:40:09;;;;;;;15.05;9.28;;;;;;;4.84;74.97;99626.38;1717657;80;21217;-64
2021/04/29 04:42:37;;;;;;;14.38;8.53;;;;;;;4.94;75.14;99620.91;1696740;83;20980;-61
2021/04/29 04:45:07;;;;;;;13.88;8.88;;;;;;;5.03;74.57;99608.38;1696701;84;21145;-63
2021/04/29 04:47:35;;;;;;;14.45;8.70;;;;;;;5.15;74.57;99618.39;1696657;84;21110;-61
2021/04/29 04:50:04;;;;;;;15.45;8.90;;;;;;;5.25;74.54;99618.87;1696743;84;21380;-62
2021/04/29 04:52:32;;;;;;;17.30;9.03;;;;;;;5.37;74.24;99617.19;1696585;84;21177;-62
2021/04/29 04:54:59;;;;;;;17.50;10.48;;;;;;;5.45;74.12;99618.78;1696696;84;21213;-62
2021/04/29 04:57:28;;;;;;;19.60;10.55;;;;;;;5.57;74.13;99617.09;1696787;84;21164;-63
2021/04/29 04:59:56;;;;;;;15.20;9.35;;;;;;;5.82;74.46;99618.27;1696650;84;21189;-62
2021/04/29 05:02:24;;;;;;;13.18;9.08;;;;;;;5.82;74.46;99618.27;1691956;84;22241;-62
2021/04/29 05:04:53;;;;;;;12.45;8.30;;;;;;;5.95;73.45;99615.48;1691403;84;21081;-63
2021/04/29 05:07:20;;;;;;;15.95;7.97;;;;;;;6.19;72.41;99621.84;1693133;84;21239;-63
2021/04/29 05:09:48;;;;;;;16.02;8.48;;;;;;;6.34;72.24;99626.36;1693243;84;21168;-63
2021/04/29 05:12:16;;;;;;;19.45;9.60;;;;;;;6.34;72.24;99626.36;1693258;84;21101;-63
2021/04/29 05:14:43;;;;;;;14.93;9.25;;;;;;;6.52;71.88;99620.17;1693265;84;21166;-62
2021/04/29 05:17:11;;;;;;;74.25;38.70;;;;;;;6.70;71.00;99618.64;1693296;84;21112;-62
2021/04/29 05:19:39;;;;;;;63.73;32.70;;;;;;;6.80;70.06;99610.91;1693252;84;21018;-62
2021/04/29 05:22:07;;;;;;;68.25;36.15;;;;;;;6.90;69.96;99618.98;1693226;84;21098;-65
2021/04/29 05:24:35;;;;;;;17.40;12.18;;;;;;;7.03;70.23;99610.07;1692689;84;21092;-67
2021/04/29 05:27:04;;;;;;;19.42;12.35;;;;;;;7.14;69.80;99610.22;1665610;84;21487;-68
2021/04/29 05:29:33;;;;;;;47.90;31.33;;;;;;;7.29;69.22;99616.86;1693333;84;21124;-68
2021/04/29 05:32:01;;;;;;;27.48;16.90;;;;;;;7.39;67.82;99624.11;1693131;84;21089;-67
2021/04/29 05:34:29;;;;;;;21.95;13.95;;;;;;;7.45;68.12;99620.77;1703684;83;21742;-67
2021/04/29 05:36:58;;;;;;;13.03;7.87;;;;;;;7.52;67.51;99622.55;1751884;81;21103;-69
2021/04/29 05:39:26;;;;;;;9.70;7.90;;;;;;;7.59;67.84;99621.08;1764874;81;22628;-69
2021/04/29 05:41:53;;;;;;;12.47;8.98;;;;;;;7.67;66.75;99620.98;1750173;81;21213;-67
2021/04/29 05:44:21;;;;;;;12.60;6.90;;;;;;;7.72;67.02;99621.46;1717869;80;21150;-70
2021/04/29 05:46:49;;;;;;;15.28;8.48;;;;;;;7.77;66.61;99618.11;1721389;82;21167;-68
2021/04/29 05:49:17;;;;;;;10.75;7.53;;;;;;;7.76;65.73;99616.48;1721493;83;21162;-68
2021/04/29 05:51:44;;;;;;;14.68;8.60;;;;;;;7.77;65.88;99618.11;1734462;82;21205;-67
2021/04/29 05:54:13;;;;;;;10.53;7.97;;;;;;;7.79;65.53;99617.81;1734311;82;21926;-68
2021/04/29 05:56:40;;;;;;;11.95;8.10;;;;;;;7.84;65.85;99619.91;1734340;82;21184;-64
2021/04/29 05:59:08;;;;;;;12.28;9.00;;;;;;;7.93;66.14;99619.51;1734424;82;21673;-69
2021/04/29 06:01:37;;;;;;;15.45;9.05;;;;;;;8.11;66.35;99621.94;1734451;82;21126;-66
2021/04/29 06:04:05;;;;;;;11.28;8.28;;;;;;;8.33;65.84;99617.25;1734361;82;21272;-68
2021/04/29 06:06:35;;;;;;;18.77;7.40;;;;;;;8.57;65.33;99612.45;1733861;82;20945;-69
2021/04/29 06:09:04;;;;;;;11.75;7.20;;;;;;;8.86;64.64;99608.06;1734426;82;21058;-71
2021/04/29 06:11:32;;;;;;;10.05;7.35;;;;;;;9.07;62.52;99604.94;1737350;79;21675;-72
2021/04/29 06:14:00;;;;;;;11.50;7.78;;;;;;;9.12;61.40;99614.42;1758482;79;21189;-67
2021/04/29 06:16:27;;;;;;;12.30;9.43;;;;;;;9.13;62.15;99615.48;1756186;81;21218;-68
2021/04/29 06:18:55;;;;;;;14.75;8.65;;;;;;;9.18;61.37;99616.76;1723604;83;20980;-70
2021/04/29 06:21:23;;;;;;;14.25;8.33;;;;;;;9.25;61.59;99610.84;1734475;82;21062;-66
2021/04/29 06:23:51;;;;;;;11.20;7.50;;;;;;;9.42;61.53;99611.59;1719081;82;21186;-69
2021/04/29 06:26:19;;;;;;;12.65;7.33;;;;;;;9.59;61.06;99609.84;1719142;83;21577;-68
2021/04/29 06:28:47;;;;;;;12.75;7.78;;;;;;;9.70;59.09;99607.69;1734247;82;22788;-69
2021/04/29 06:31:15;;;;;;;18.07;7.87;;;;;;;9.72;59.68;99611.49;1718890;83;21082;-68
2021/04/29 06:33:42;;;;;;;13.18;7.80;;;;;;;9.77;59.19;99612.19;1734357;82;20961;-67
2021/04/29 06:36:10;;;;;;;17.50;9.23;;;;;;;9.83;58.87;99616.41;1719042;83;21157;-66
2021/04/29 06:38:37;;;;;;;11.73;8.13;;;;;;;9.81;58.00;99615.94;1734538;81;21566;-68
2021/04/29 06:41:05;;;;;;;12.25;9.43;;;;;;;9.76;58.76;99616.61;1719193;83;21240;-66
2021/04/29 06:43:33;;;;;;;17.37;8.85;;;;;;;9.76;58.92;99617.42;1734368;82;21133;-70
2021/04/29 06:46:01;;;;;;;11.78;7.83;;;;;;;9.80;58.81;99615.69;1711963;83;21178;-64
2021/04/29 06:48:28;;;;;;;20.15;7.85;;;;;;;9.81;57.68;99620.05;1705987;83;21213;-64
2021/04/29 06:50:56;;;;;;;18.37;8.43;;;;;;;9.80;57.21;99618.43;1750162;81;21566;-65
2021/04/29 06:53:25;;;;;;;17.30;7.92;;;;;;;9.83;56.90;99618.34;1758041;81;22234;-69
2021/04/29 06:55:53;;;;;;;13.10;6.80;;;;;;;9.82;56.64;99619.49;1764746;81;21479;-68
2021/04/29 06:58:20;;;;;;;18.42;8.18;;;;;;;9.83;56.91;99620.52;1764799;81;20976;-78
2021/04/29 07:00:48;;;;;;;20.80;11.60;;;;;;;9.94;57.35;99615.06;1764884;81;21143;-85
2021/04/29 07:03:15;;;;;;;15.25;9.15;;;;;;;10.08;56.23;99618.31;1764812;81;21071;-74
2021/04/29 07:05:43;;;;;;;17.50;10.68;;;;;;;10.11;55.99;99614.39;1764677;81;21374;-74
2021/04/29 07:08:12;;;;;;;20.35;6.60;;;;;;;10.15;56.59;99615.95;1764646;81;21088;-73
2021/04/29 07:10:41;;;;;;;12.43;7.20;;;;;;;10.22;56.44;99614.99;1764709;81;20941;-73
2021/04/29 07:13:10;;;;;;;19.45;10.53;;;;;;;10.29;56.77;99609.07;1744373;81;21218;-73
2021/04/29 07:15:37;;;;;;;15.63;7.90;;;;;;;10.41;57.33;99615.59;1734471;82;21150;-75
2021/04/29 07:18:05;;;;;;;19.07;10.32;;;;;;;10.62;56.17;99599.41;1734416;82;21207;-85
2021/04/29 07:20:37;;;;;;;10.70;6.00;;;;;;;10.83;56.45;99618.91;1734333;82;20969;-72
2021/04/29 07:23:04;;;;;;;13.75;7.33;;;;;;;10.99;54.25;99618.71;1734651;82;20952;-79
2021/04/29 07:25:34;;;;;;;12.73;6.35;;;;;;;10.99;54.28;99615.97;1734497;82;21063;-83
2021/04/29 07:28:01;;;;;;;17.10;10.08;;;;;;;10.94;54.57;99627.13;1763694;80;21247;-75
2021/04/29 07:30:31;;;;;;;11.40;6.75;;;;;;;10.93;54.51;99621.38;1782036;80;21189;-75
2021/04/29 07:32:59;;;;;;;22.55;9.10;;;;;;;10.97;54.28;99616.06;1781943;80;21001;-75
2021/04/29 07:35:27;;;;;;;18.10;11.63;;;;;;;11.01;53.54;99613.71;1782023;80;20959;-73
2021/04/29 07:37:55;;;;;;;20.23;9.15;;;;;;;11.10;53.76;99599.45;1782038;80;21496;-69
2021/04/29 07:40:24;;;;;;;11.08;6.78;;;;;;;11.18;53.24;99604.16;1778062;80;21158;-67
2021/04/29 07:42:51;;;;;;;11.22;7.33;;;;;;;11.23;52.64;99604.02;1690876;83;21150;-65
2021/04/29 07:45:19;;;;;;;17.48;7.70;;;;;;;11.24;52.26;99609.77;1757055;81;21154;-63
2021/04/29 07:47:47;;;;;;;21.62;9.60;;;;;;;11.29;52.65;99608.00;1764691;81;21555;-66
2021/04/29 07:50:15;;;;;;;14.13;6.35;;;;;;;11.40;52.33;99604.64;1735069;81;20945;-66
2021/04/29 07:52:44;;;;;;;17.23;8.83;;;;;;;11.54;51.44;99594.33;1764699;81;21079;-66
2021/04/29 07:55:14;;;;;;;11.85;5.95;;;;;;;11.62;51.46;99607.00;1764879;81;21213;-72
2021/04/29 07:57:43;;;;;;;10.05;6.85;;;;;;;11.89;51.09;99597.92;1735154;81;21499;-70
2021/04/29 08:00:13;;;;;;;15.28;7.50;;;;;;;12.26;50.56;99598.38;1764420;81;21046;-66
2021/04/29 08:02:41;;;;;;;8.65;5.72;;;;;;;12.59;48.61;99590.95;1764781;81;21035;-66
2021/04/29 08:05:11;;;;;;;13.13;9.20;;;;;;;12.84;48.20;99579.84;1764669;81;21142;-69
2021/04/29 08:07:39;;;;;;;17.70;7.65;;;;;;;13.07;47.01;99586.48;1773719;80;21197;-68
2021/04/29 08:10:09;;;;;;;17.95;5.95;;;;;;;13.28;47.06;99585.19;1778802;80;21136;-65
2021/04/29 08:12:37;;;;;;;19.50;6.33;;;;;;;13.48;45.72;99578.31;1765293;79;21194;-66
2021/04/29 08:15:07;;;;;;;9.33;5.62;;;;;;;13.66;44.19;99585.09;1760090;80;21084;-64
2021/04/29 08:17:35;;;;;;;15.38;5.92;;;;;;;13.63;43.94;99578.88;1759790;80;21065;-63
2021/04/29 08:20:04;;;;;;;10.28;4.90;;;;;;;13.58;43.56;99583.20;1779029;80;22399;-63
2021/04/29 08:22:33;;;;;;;18.77;5.83;;;;;;;13.59;43.67;99580.11;1737111;82;21078;-63
2021/04/29 08:25:01;;;;;;;14.93;5.30;;;;;;;13.63;44.26;99581.06;1713964;82;21147;-63
2021/04/29 08:27:29;;;;;;;14.87;4.70;;;;;;;13.91;43.54;99566.70;1707615;84;21126;-64
2021/04/29 08:29:59;;;;;;;14.43;5.17;;;;;;;14.22;43.66;99565.70;1707468;84;21213;-64
2021/04/29 08:32:27;;;;;;;8.08;4.20;;;;;;;14.45;41.42;99567.52;1711697;83;21948;-63
2021/04/29 08:34:54;;;;;;;6.58;3.95;;;;;;;14.60;41.51;99558.58;1707575;83;21107;-64
2021/04/29 08:37:22;;;;;;;9.23;4.17;;;;;;;14.67;41.02;99568.50;1711666;83;21082;-64
2021/04/29 08:39:50;;;;;;;16.17;5.08;;;;;;;14.67;39.74;99560.20;1707451;82;21435;-65
2021/04/29 08:42:19;;;;;;;10.38;4.15;;;;;;;14.65;40.15;99560.31;1711698;83;21113;-64
2021/04/29 08:44:47;;;;;;;8.50;4.37;;;;;;;14.65;39.29;99560.31;1698893;84;21401;-64
2021/04/29 08:47:16;;;;;;;8.63;4.17;;;;;;;14.60;40.59;99543.38;1681169;84;21500;-65
2021/04/29 08:49:45;;;;;;;7.45;3.90;;;;;;;14.74;40.28;99551.36;1706033;83;21095;-65
2021/04/29 08:52:14;;;;;;;5.75;3.45;;;;;;;14.98;39.40;99551.39;1736894;82;21487;-65
2021/04/29 08:54:46;;;;;;;7.90;4.15;;;;;;;15.27;38.00;99541.22;1686363;82;21176;-65
2021/04/29 08:57:14;;;;;;;14.18;4.60;;;;;;;15.48;38.19;99541.31;1707386;83;21355;-64
2021/04/29 08:59:42;;;;;;;6.53;3.80;;;;;;;15.63;38.86;99537.02;1707554;83;21859;-65
2021/04/29 09:02:10;;;;;;;19.90;4.65;;;;;;;15.70;38.79;99533.08;1694608;83;21069;-64
2021/04/29 09:04:43;;;;;;;6.00;3.27;;;;;;;15.73;37.49;99524.08;1691556;84;21176;-65
2021/04/29 09:07:13;;;;;;;5.72;3.87;;;;;;;15.83;36.72;99525.55;1679847;84;21487;-66
2021/04/29 09:09:43;;;;;;;13.28;3.67;;;;;;;15.90;37.82;99515.27;1655715;86;21385;-65
2021/04/29 09:12:12;;;;;;;4.47;3.33;;;;;;;16.07;37.15;99510.81;1655696;85;21560;-64
2021/04/29 09:14:41;;;;;;;5.28;3.22;;;;;;;16.12;37.58;99515.52;1655863;85;21569;-63
2021/04/29 09:17:10;;;;;;;11.33;3.37;;;;;;;16.22;35.85;99519.72;1666944;86;21020;-64
2021/04/29 09:19:49;;;;;;;6.30;3.50;;;;;;;16.30;36.45;99511.83;1685214;85;21097;-65
2021/04/29 09:22:21;;;;;;;6.37;3.42;;;;;;;16.35;34.53;99488.02;1667118;86;21394;-64
2021/04/29 09:24:49;;;;;;;8.90;4.30;;;;;;;16.18;35.75;99507.16;1684110;84;21688;-72
2021/04/29 09:27:27;;;;;;;7.12;3.25;;;;;;;16.18;35.56;99511.31;1665813;86;21230;-66
2021/04/29 09:30:00;;;;;;;6.90;3.27;;;;;;;16.20;33.51;99505.41;1683884;84;21230;-65
2021/04/29 09:32:35;;;;;;;9.48;3.58;;;;;;;16.07;33.76;99500.55;1654852;86;21172;-68
2021/04/29 09:35:06;;;;;;;5.58;3.50;;;;;;;15.90;35.21;99498.08;1666107;86;21675;-67
2021/04/29 09:37:37;;;;;;;4.60;2.83;;;;;;;15.84;34.39;99497.52;1684372;85;21616;-66
2021/04/29 09:40:09;;;;;;;7.87;3.47;;;;;;;15.89;34.92;99488.74;1684617;85;21612;-65
2021/04/29 09:42:37;;;;;;;9.55;3.45;;;;;;;16.21;36.09;99475.75;1660367;86;21100;-64
2021/04/29 09:45:16;;;;;;;4.97;3.25;;;;;;;16.48;35.22;99477.09;1684818;85;21069;-64
2021/04/29 09:47:59;;;;;;;4.47;3.17;;;;;;;16.69;34.94;99476.06;1666917;84;21459;-65
2021/04/29 09:50:32;;;;;;;6.60;3.02;;;;;;;16.84;34.11;99471.86;1684276;85;21143;-64
2021/04/29 09:53:14;;;;;;;12.13;3.50;;;;;;;16.92;34.42;99454.02;1684008;85;21232;-68
2021/04/29 09:55:47;;;;;;;10.18;3.65;;;;;;;17.14;34.90;99466.63;1677486;85;20974;-66
2021/04/29 09:58:17;;;;;;;6.28;2.90;;;;;;;17.30;33.77;99455.50;1676399;84;21061;-65
2021/04/29 10:00:48;;;;;;;6.80;2.90;;;;;;;17.24;32.98;99453.37;1711640;83;21442;-68
2021/04/29 10:03:17;;;;;;;6.00;3.05;;;;;;;17.27;33.05;99445.70;1712965;83;21169;-69
2021/04/29 10:05:50;;;;;;;10.80;3.67;;;;;;;17.30;33.03;99444.41;1710542;83;20978;-68
2021/04/29 10:08:16;;;;;;;13.65;3.67;;;;;;;17.35;32.95;99450.22;1693605;84;21098;-68
2021/04/29 10:10:47;;;;;;;10.93;3.27;;;;;;;17.42;33.33;99448.41;1733979;82;21104;-67
2021/04/29 10:13:18;;;;;;;8.43;2.98;;;;;;;17.54;31.79;99440.53;1706239;82;21307;-68
2021/04/29 10:15:46;;;;;;;5.30;3.00;;;;;;;17.43;32.84;99426.42;1733798;82;21591;-67
2021/04/29 10:18:14;;;;;;;6.40;3.00;;;;;;;17.35;32.39;99439.13;1733697;82;21089;-67
2021/04/29 10:20:49;;;;;;;3.77;2.52;;;;;;;17.30;32.89;99431.11;1733894;82;21587;-66
2021/04/29 10:23:19;;;;;;;7.92;2.42;;;;;;;17.45;32.30;99430.22;1737431;80;21052;-70
2021/04/29 10:25:54;;;;;;;5.30;2.50;;;;;;;17.55;32.60;99431.62;1781619;80;21478;-66
2021/04/29 10:28:37;;;;;;;4.90;2.22;;;;;;;17.81;32.14;99425.66;1781746;80;20951;-67
2021/04/29 10:31:23;;;;;;;14.93;3.58;;;;;;;17.91;30.73;99430.39;1781553;80;21065;-67
2021/04/29 10:33:55;;;;;;;3.62;2.52;;;;;;;17.95;31.94;99421.52;1781628;80;21777;-67
2021/04/29 10:36:40;;;;;;;6.42;2.60;;;;;;;18.08;31.21;99429.31;1724249;81;21094;-64
2021/04/29 10:39:19;;;;;;;9.10;3.75;;;;;;;18.08;31.65;99430.70;1714816;83;21152;-66
2021/04/29 10:41:50;;;;;;;3.08;2.50;;;;;;;18.09;31.58;99418.42;1713449;83;21149;-67
2021/04/29 10:44:20;;;;;;;7.03;2.95;;;;;;;18.13;30.85;99415.70;1749710;81;21064;-68
2021/04/29 10:46:50;;;;;;;7.10;2.92;;;;;;;18.17;30.96;99416.58;1749279;80;21040;-67
2021/04/29 10:49:17;;;;;;;9.33;4.30;;;;;;;18.03;31.10;99416.31;1744791;81;21570;-66
2021/04/29 10:51:47;;;;;;;6.72;2.50;;;;;;;17.91;31.88;99422.84;1747081;81;21382;-66
2021/04/29 10:54:23;;;;;;;8.73;2.70;;;;;;;18.01;31.47;99415.88;1743721;81;20949;-67
2021/04/29 10:57:11;;;;;;;7.15;2.65;;;;;;;18.09;31.30;99417.03;1751052;81;21553;-67
2021/04/29 10:59:50;;;;;;;3.33;2.70;;;;;;;18.16;31.68;99421.92;1760437;81;21590;-64
2021/04/29 11:02:36;;;;;;;7.47;3.10;;;;;;;18.20;31.32;99415.84;1728463;83;21575;-63
2021/04/29 11:05:08;;;;;;;6.47;2.60;;;;;;;18.32;31.48;99404.55;1728391;82;22073;-66
2021/04/29 11:07:47;;;;;;;5.58;2.65;;;;;;;18.51;31.34;99408.40;1716705;83;21537;-61
2021/04/29 11:10:16;;;;;;;18.37;13.70;;;;;;;18.54;30.72;99399.31;1707642;84;21388;-64
2021/04/29 11:12:51;;;;;;;9.28;2.95;;;;;;;18.34;30.87;99386.11;1711711;83;21074;-63
2021/04/29 11:15:40;;;;;;;241.97;113.20;;;;;;;18.29;31.82;99405.28;1737154;82;21572;-63
2021/04/29 11:18:16;;;;;;;8.23;3.27;;;;;;;18.49;30.80;99417.91;1737057;82;21243;-64
2021/04/29 11:20:56;;;;;;;11.97;2.40;;;;;;;18.64;30.76;99408.45;1727022;82;20970;-64
2021/04/29 11:23:38;;;;;;;7.78;2.85;;;;;;;18.68;31.27;99391.23;1691675;84;21082;-63
2021/04/29 11:26:19;;;;;;;4.35;2.58;;;;;;;18.82;30.26;99395.62;1704463;83;21524;-64
2021/04/29 11:28:48;;;;;;;15.27;7.57;;;;;;;18.72;30.63;99395.67;1720771;83;21113;-64
2021/04/29 11:31:18;;;;;;;6.10;2.67;;;;;;;18.60;30.02;99395.05;1713034;83;21402;-64
2021/04/29 11:33:48;;;;;;;4.12;2.42;;;;;;;18.64;30.56;99388.98;1732884;82;20964;-63
2021/04/29 11:36:27;;;;;;;;;;;;;;;18.76;30.01;99385.41;1739679;82;21059;-62
2021/04/29 11:38:59;;;;;;;3.75;2.55;;;;;;;18.84;30.85;99393.86;1737122;82;20242;-65
2021/04/29 11:41:28;;;;;;;5.53;3.20;;;;;;;18.70;30.21;99392.47;1727967;82;21127;-63
2021/04/29 11:44:01;;;;;;;4.75;2.72;;;;;;;18.61;30.18;99384.17;1695476;83;21141;-63